createdAt,value
2018-12-09T00:02:00.320Z,97725.32
2018-12-09T00:04:28.801Z,97722.37
2018-12-09T00:06:57.396Z,97711.70
2018-12-09T00:09:25.690Z,97708.21
2018-12-09T00:11:54.581Z,97713.27
2018-12-09T00:14:22.791Z,97708.66
2018-12-09T00:16:50.977Z,97711.09
2018-12-09T00:19:19.381Z,97703.88
2018-12-09T00:21:47.909Z,97710.04
2018-12-09T00:24:16.447Z,97704.98
2018-12-09T00:26:46.175Z,97700.66
2018-12-09T00:29:14.487Z,97695.13
2018-12-09T00:31:43.393Z,97696.72
2018-12-09T00:34:11.708Z,97678.02
2018-12-09T00:36:39.964Z,97692.02
2018-12-09T00:39:09.168Z,97689.03
2018-12-09T00:41:39.460Z,97675.10
2018-12-09T00:44:09.276Z,97661.74
2018-12-09T00:46:39.800Z,97671.63
2018-12-09T00:49:09.158Z,97676.40
2018-12-09T00:51:39.670Z,97675.23
2018-12-09T00:54:07.899Z,97666.13
2018-12-09T00:56:37.199Z,97672.14
2018-12-09T00:59:08.256Z,97671.88
2018-12-09T01:01:38.469Z,97669.48
2018-12-09T01:04:08.996Z,97680.34
2018-12-09T01:06:38.877Z,97673.12
2018-12-09T01:09:09.244Z,97685.91
2018-12-09T01:11:40.539Z,97698.30
2018-12-09T01:14:09.817Z,97694.72
2018-12-09T01:16:40.441Z,97704.59
2018-12-09T01:19:09.800Z,97709.70
2018-12-09T01:21:40.316Z,97717.11
2018-12-09T01:24:09.607Z,97714.97
2018-12-09T01:26:39.468Z,97722.77
2018-12-09T01:29:09.449Z,97716.66
2018-12-09T01:31:39.307Z,97710.53
2018-12-09T01:34:09.077Z,97701.31
2018-12-09T01:36:37.381Z,97707.65
2018-12-09T01:39:06.527Z,97712.48
2018-12-09T01:41:34.831Z,97729.75
2018-12-09T01:44:03.523Z,97727.61
2018-12-09T01:46:32.277Z,97725.66
2018-12-09T01:49:00.721Z,97720.73
2018-12-09T01:51:28.900Z,97731.78
2018-12-09T01:54:13.488Z,97724.97
2018-12-09T01:56:42.204Z,97734.41
2018-12-09T01:59:10.630Z,97725.78
2018-12-09T02:01:40.212Z,97716.31
2018-12-09T02:04:09.907Z,97704.22
2018-12-09T02:06:40.010Z,97713.33
2018-12-09T02:09:10.640Z,97700.84
2018-12-09T02:11:40.359Z,97695.09
2018-12-09T02:14:10.644Z,97701.48
2018-12-09T02:16:39.969Z,97696.58
2018-12-09T02:19:26.656Z,97702.69
2018-12-09T02:21:55.685Z,97709.17
2018-12-09T02:24:23.976Z,97705.10
2018-12-09T02:26:52.173Z,97717.09
2018-12-09T02:29:20.531Z,97725.84
2018-12-09T02:31:49.229Z,97728.13
2018-12-09T02:34:17.386Z,97730.17
2018-12-09T02:36:45.601Z,97727.76
2018-12-09T02:39:14.340Z,97728.27
2018-12-09T02:41:42.615Z,97713.59
2018-12-09T02:44:11.012Z,97721.17
2018-12-09T02:46:39.301Z,97735.69
2018-12-09T02:49:07.472Z,97731.28
2018-12-09T02:51:35.978Z,97733.22
2018-12-09T02:54:04.501Z,97737.41
2018-12-09T02:56:33.860Z,97727.45
2018-12-09T02:59:02.186Z,97715.83
2018-12-09T03:01:30.567Z,97738.61
2018-12-09T03:03:58.842Z,97732.39
2018-12-09T03:06:27.019Z,97747.72
2018-12-09T03:08:55.405Z,97764.53
2018-12-09T03:11:23.686Z,97775.42
2018-12-09T03:13:51.943Z,97773.63
2018-12-09T03:16:20.125Z,97762.95
2018-12-09T03:18:48.486Z,97763.20
2018-12-09T03:21:16.782Z,97761.63
2018-12-09T03:23:45.025Z,97764.52
2018-12-09T03:26:13.216Z,97769.88
2018-12-09T03:28:41.495Z,97765.58
2018-12-09T03:31:10.178Z,97761.75
2018-12-09T03:33:39.245Z,97749.03
2018-12-09T03:36:07.515Z,97749.02
2018-12-09T03:38:35.786Z,97735.45
2018-12-09T03:41:04.208Z,97738.94
2018-12-09T03:43:32.479Z,97746.13
2018-12-09T03:46:00.880Z,97751.87
2018-12-09T03:48:29.045Z,97761.09
2018-12-09T03:50:57.316Z,97755.46
2018-12-09T03:53:25.504Z,97759.88
2018-12-09T03:55:53.754Z,97765.28
2018-12-09T03:58:21.945Z,97763.37
2018-12-09T04:00:50.212Z,97761.72
2018-12-09T04:03:18.485Z,97758.84
2018-12-09T04:05:46.861Z,97771.44
2018-12-09T04:08:15.246Z,97774.21
2018-12-09T04:10:43.843Z,97788.12
2018-12-09T04:13:12.198Z,97794.12
2018-12-09T04:15:41.423Z,97777.45
2018-12-09T04:18:10.182Z,97775.41
2018-12-09T04:20:38.433Z,97801.30
2018-12-09T04:23:06.721Z,97792.16
2018-12-09T04:25:35.012Z,97799.97
2018-12-09T04:28:03.285Z,97795.38
2018-12-09T04:30:31.466Z,97792.73
2018-12-09T04:32:59.653Z,97800.16
2018-12-09T04:35:28.036Z,97809.36
2018-12-09T04:37:56.288Z,97813.45
2018-12-09T04:40:24.554Z,97819.58
2018-12-09T04:42:52.844Z,97815.71
2018-12-09T04:45:21.155Z,97805.42
2018-12-09T04:47:49.516Z,97816.30
2018-12-09T04:50:17.807Z,97812.59
2018-12-09T04:52:46.546Z,97812.19
2018-12-09T04:55:14.721Z,97809.55
2018-12-09T04:57:42.896Z,97806.92
2018-12-09T05:00:22.724Z,97802.62
2018-12-09T05:02:51.426Z,97816.97
2018-12-09T05:05:19.611Z,97821.34
2018-12-09T05:07:47.782Z,97822.09
2018-12-09T05:10:15.949Z,97819.28
2018-12-09T05:12:44.154Z,97821.83
2018-12-09T05:15:12.584Z,97825.66
2018-12-09T05:17:40.794Z,97825.08
2018-12-09T05:20:09.069Z,97830.47
2018-12-09T05:22:37.337Z,97838.27
2018-12-09T05:25:05.702Z,97845.58
2018-12-09T05:27:34.055Z,97845.67
2018-12-09T05:30:02.256Z,97845.45
2018-12-09T05:32:30.533Z,97846.88
2018-12-09T05:34:58.718Z,97850.16
2018-12-09T05:37:27.867Z,97846.91
2018-12-09T05:39:56.795Z,97854.33
2018-12-09T05:42:26.414Z,97858.89
2018-12-09T05:44:56.184Z,97870.41
2018-12-09T05:47:26.680Z,97863.84
2018-12-09T05:49:56.992Z,97857.45
2018-12-09T05:52:26.701Z,97864.03
2018-12-09T05:54:56.760Z,97860.95
2018-12-09T05:57:25.077Z,97867.98
2018-12-09T05:59:53.345Z,97873.05
2018-12-09T06:02:33.001Z,97871.68
2018-12-09T06:05:01.347Z,97878.91
2018-12-09T06:07:29.616Z,97879.87
2018-12-09T06:09:57.917Z,97889.84
2018-12-09T06:12:26.083Z,97891.88
2018-12-09T06:14:54.369Z,97889.26
2018-12-09T06:17:22.544Z,97903.53
2018-12-09T06:19:50.806Z,97905.18
2018-12-09T06:22:19.086Z,97904.05
2018-12-09T06:24:47.342Z,97899.31
2018-12-09T06:27:15.540Z,97912.59
2018-12-09T06:29:43.799Z,97914.50
2018-12-09T06:32:11.956Z,97912.83
2018-12-09T06:34:40.788Z,97907.81
2018-12-09T06:37:08.950Z,97909.84
2018-12-09T06:39:37.263Z,97912.50
2018-12-09T06:42:05.433Z,97910.36
2018-12-09T06:44:33.785Z,97912.14
2018-12-09T06:47:03.343Z,97916.84
2018-12-09T06:49:31.557Z,97912.78
2018-12-09T06:51:59.729Z,97923.44
2018-12-09T06:54:27.951Z,97917.81
2018-12-09T06:56:56.120Z,97924.76
2018-12-09T06:59:24.763Z,97928.22
2018-12-09T07:01:53.042Z,97937.72
2018-12-09T07:04:21.269Z,97941.30
2018-12-09T07:06:49.486Z,97949.06
2018-12-09T07:09:17.769Z,97953.52
2018-12-09T07:11:46.035Z,97948.78
2018-12-09T07:14:14.211Z,97950.42
2018-12-09T07:16:42.448Z,97942.95
2018-12-09T07:19:10.620Z,97953.11
2018-12-09T07:21:38.881Z,97961.92
2018-12-09T07:24:07.123Z,97966.14
2018-12-09T07:26:35.469Z,97957.13
2018-12-09T07:29:03.754Z,97959.84
2018-12-09T07:31:32.058Z,97966.78
2018-12-09T07:34:00.321Z,97977.75
2018-12-09T07:36:28.604Z,97989.95
2018-12-09T07:38:57.059Z,97993.17
2018-12-09T07:41:25.468Z,97996.39
2018-12-09T07:43:53.728Z,98004.80
2018-12-09T07:46:21.943Z,98005.92
2018-12-09T07:48:50.158Z,98004.52
2018-12-09T07:51:18.549Z,97992.62
2018-12-09T07:53:47.036Z,97992.47
2018-12-09T07:56:15.311Z,98000.69
2018-12-09T07:58:43.833Z,98005.95
2018-12-09T08:01:12.116Z,98012.34
2018-12-09T08:03:40.351Z,98005.53
2018-12-09T08:06:09.084Z,98010.06
2018-12-09T08:08:37.306Z,98010.38
2018-12-09T08:11:05.574Z,98013.63
2018-12-09T08:13:33.777Z,98027.55
2018-12-09T08:16:02.010Z,98019.75
2018-12-09T08:18:30.195Z,98023.12
2018-12-09T08:20:58.745Z,98023.12
2018-12-09T08:23:26.953Z,98011.62
2018-12-09T08:25:55.204Z,98014.25
2018-12-09T08:28:23.410Z,98014.56
2018-12-09T08:30:51.584Z,98009.63
2018-12-09T08:33:19.878Z,98009.98
2018-12-09T08:35:49.619Z,98019.20
2018-12-09T08:38:17.852Z,98016.58
2018-12-09T08:40:46.052Z,98007.03
2018-12-09T08:43:14.296Z,98016.64
2018-12-09T08:45:42.465Z,98004.96
2018-12-09T08:48:10.760Z,98008.09
2018-12-09T08:50:38.993Z,98013.14
2018-12-09T08:53:07.194Z,98013.29
2018-12-09T08:55:35.400Z,98012.47
2018-12-09T08:58:03.606Z,98008.31
2018-12-09T09:00:31.913Z,98000.02
2018-12-09T09:03:00.203Z,98001.34
2018-12-09T09:05:28.376Z,98004.12
2018-12-09T09:07:57.398Z,97999.58
2018-12-09T09:10:25.554Z,98002.94
2018-12-09T09:12:54.735Z,97996.73
2018-12-09T09:15:22.922Z,98003.05
2018-12-09T09:17:51.092Z,98008.11
2018-12-09T09:20:19.312Z,98002.31
2018-12-09T09:22:47.538Z,97989.12
2018-12-09T09:25:15.718Z,97990.70
2018-12-09T09:27:43.925Z,97998.47
2018-12-09T09:30:12.213Z,97998.97
2018-12-09T09:32:40.433Z,97993.93
2018-12-09T09:35:08.697Z,98001.97
2018-12-09T09:37:36.882Z,97999.23
2018-12-09T09:40:07.605Z,98002.73
2018-12-09T09:42:35.814Z,98003.77
2018-12-09T09:45:05.405Z,97997.63
2018-12-09T09:47:33.677Z,97996.89
2018-12-09T09:50:02.249Z,97994.31
2018-12-09T09:52:30.536Z,98002.71
2018-12-09T09:54:59.048Z,97998.64
2018-12-09T09:57:27.317Z,97990.62
2018-12-09T09:59:55.558Z,98004.35
2018-12-09T10:02:23.869Z,97999.42
2018-12-09T10:04:52.095Z,97998.84
2018-12-09T10:07:21.502Z,98002.94
2018-12-09T10:09:49.818Z,98005.97
2018-12-09T10:12:18.181Z,98023.87
2018-12-09T10:14:46.505Z,98014.13
2018-12-09T10:17:15.476Z,98014.25
2018-12-09T10:19:43.688Z,98001.65
2018-12-09T10:22:11.869Z,97999.61
2018-12-09T10:24:40.043Z,98008.75
2018-12-09T10:27:08.248Z,98013.77
2018-12-09T10:29:36.449Z,98015.95
2018-12-09T10:32:06.437Z,98010.58
2018-12-09T10:34:38.750Z,98009.72
2018-12-09T10:37:05.352Z,98003.03
2018-12-09T10:39:35.402Z,97999.55
2018-12-09T10:42:05.399Z,98004.71
2018-12-09T10:44:33.571Z,97996.19
2018-12-09T10:47:02.876Z,98005.70
2018-12-09T10:49:31.701Z,98007.62
2018-12-09T10:51:59.932Z,98008.72
2018-12-09T10:54:29.420Z,98015.67
2018-12-09T10:56:57.808Z,98010.39
2018-12-09T10:59:26.086Z,98009.41
2018-12-09T11:01:56.693Z,98005.34
2018-12-09T11:04:24.949Z,98012.31
2018-12-09T11:07:00.103Z,98023.00
2018-12-09T11:09:28.440Z,98015.88
2018-12-09T11:11:56.705Z,98010.00
2018-12-09T11:14:25.019Z,98011.56
2018-12-09T11:16:53.375Z,98015.53
2018-12-09T11:19:22.138Z,98015.53
2018-12-09T11:21:50.440Z,98009.53
2018-12-09T11:24:18.642Z,98015.06
2018-12-09T11:26:46.952Z,98005.82
2018-12-09T11:29:15.114Z,98014.95
2018-12-09T11:31:43.427Z,98008.81
2018-12-09T11:34:11.653Z,98004.13
2018-12-09T11:36:40.267Z,98008.59
2018-12-09T11:39:09.415Z,98005.70
2018-12-09T11:41:38.069Z,98008.12
2018-12-09T11:44:06.348Z,98005.35
2018-12-09T11:46:34.551Z,97992.61
2018-12-09T11:49:03.837Z,97995.60
2018-12-09T11:51:32.205Z,97998.15
2018-12-09T11:54:00.613Z,98004.03
2018-12-09T11:56:29.505Z,97999.34
2018-12-09T11:58:57.824Z,98006.30
2018-12-09T12:01:25.984Z,98010.98
2018-12-09T12:03:54.152Z,98015.33
2018-12-09T12:06:23.150Z,98015.67
2018-12-09T12:08:51.702Z,98020.23
2018-12-09T12:11:20.479Z,98018.31
2018-12-09T12:13:48.798Z,98025.98
2018-12-09T12:16:17.050Z,98034.97
2018-12-09T12:18:45.324Z,98045.19
2018-12-09T12:21:13.597Z,98037.12
2018-12-09T12:23:42.002Z,98056.33
2018-12-09T12:26:10.690Z,98064.25
2018-12-09T12:28:38.864Z,98061.58
2018-12-09T12:31:07.098Z,98074.05
2018-12-09T12:33:35.353Z,98078.36
2018-12-09T12:36:03.521Z,98093.30
2018-12-09T12:38:31.715Z,98081.61
2018-12-09T12:41:00.012Z,98090.65
2018-12-09T12:43:28.406Z,98097.64
2018-12-09T12:45:56.636Z,98095.80
2018-12-09T12:48:24.801Z,98088.47
2018-12-09T12:50:53.271Z,98085.80
2018-12-09T12:53:21.872Z,98084.12
2018-12-09T12:55:50.660Z,98077.94
2018-12-09T12:58:18.990Z,98067.71
2018-12-09T13:00:48.055Z,98082.46
2018-12-09T13:03:17.015Z,98076.02
2018-12-09T13:05:46.037Z,98079.94
2018-12-09T13:08:15.375Z,98073.20
2018-12-09T13:10:44.360Z,98086.38
2018-12-09T13:13:13.497Z,98084.04
2018-12-09T13:15:42.492Z,98089.31
2018-12-09T13:18:11.571Z,98099.22
2018-12-09T13:20:40.421Z,98097.86
2018-12-09T13:23:10.359Z,98101.81
2018-12-09T13:25:38.947Z,98106.13
2018-12-09T13:28:08.004Z,98113.80
2018-12-09T13:30:36.441Z,98105.53
2018-12-09T13:33:04.845Z,98116.41
2018-12-09T13:35:33.346Z,98121.83
2018-12-09T13:38:04.918Z,98124.59
2018-12-09T13:40:34.837Z,98124.34
2018-12-09T13:43:03.018Z,98120.93
2018-12-09T13:45:31.974Z,98121.52
2018-12-09T13:48:00.805Z,98128.13
2018-12-09T13:50:29.212Z,98133.41
2018-12-09T13:52:57.496Z,98140.91
2018-12-09T13:55:25.876Z,98146.75
2018-12-09T13:57:54.155Z,98151.19
2018-12-09T14:00:23.390Z,98160.53
2018-12-09T14:02:51.588Z,98161.32
2018-12-09T14:05:20.017Z,98163.91
2018-12-09T14:07:48.214Z,98171.30
2018-12-09T14:10:16.412Z,98189.77
2018-12-09T14:12:44.721Z,98179.52
2018-12-09T14:15:14.074Z,98182.27
2018-12-09T14:17:42.237Z,98194.84
2018-12-09T14:20:10.900Z,98200.56
2018-12-09T14:22:39.155Z,98204.73
2018-12-09T14:25:07.677Z,98208.40
2018-12-09T14:27:36.556Z,98220.59
2018-12-09T14:30:06.155Z,98216.66
2018-12-09T14:32:34.779Z,98228.28
2018-12-09T14:35:04.581Z,98241.48
2018-12-09T14:37:32.819Z,98255.72
2018-12-09T14:40:01.561Z,98263.13
2018-12-09T14:42:30.685Z,98277.04
2018-12-09T14:44:58.957Z,98278.06
2018-12-09T14:47:28.122Z,98277.02
2018-12-09T14:49:56.363Z,98282.33
2018-12-09T14:52:24.766Z,98301.96
2018-12-09T14:54:53.466Z,98307.13
2018-12-09T14:57:21.751Z,98312.61
2018-12-09T14:59:50.116Z,98332.48
2018-12-09T15:02:18.457Z,98328.11
2018-12-09T15:04:46.867Z,98327.13
2018-12-09T15:07:15.114Z,98339.41
2018-12-09T15:09:43.990Z,98348.14
2018-12-09T15:12:12.759Z,98353.42
2018-12-09T15:14:41.347Z,98358.97
2018-12-09T15:17:09.874Z,98373.52
2018-12-09T15:19:38.139Z,98379.53
2018-12-09T15:22:06.391Z,98382.69
2018-12-09T15:24:41.401Z,98385.80
2018-12-09T15:27:05.096Z,98400.92
2018-12-09T15:29:33.999Z,98419.75
2018-12-09T15:32:02.275Z,98426.19
2018-12-09T15:34:30.514Z,98444.43
2018-12-09T15:36:58.684Z,98455.84
2018-12-09T15:39:26.880Z,98463.54
2018-12-09T15:41:56.240Z,98469.77
2018-12-09T15:44:24.598Z,98476.94
2018-12-09T15:46:52.820Z,98484.45
2018-12-09T15:49:21.993Z,98487.03
2018-12-09T15:51:50.162Z,98487.45
2018-12-09T15:54:18.942Z,98499.72
2018-12-09T15:56:47.131Z,98513.02
2018-12-09T15:59:15.294Z,98509.34
2018-12-09T16:01:43.478Z,98515.25
2018-12-09T16:04:11.648Z,98528.48
2018-12-09T16:06:39.966Z,98534.69
2018-12-09T16:09:08.790Z,98538.42
2018-12-09T16:11:36.978Z,98547.27
2018-12-09T16:14:05.174Z,98548.72
2018-12-09T16:16:33.368Z,98558.44
2018-12-09T16:19:01.713Z,98573.38
2018-12-09T16:21:29.909Z,98575.66
2018-12-09T16:23:58.283Z,98582.71
2018-12-09T16:26:27.224Z,98589.97
2018-12-09T16:28:55.465Z,98597.97
2018-12-09T16:31:24.076Z,98600.41
2018-12-09T16:33:52.412Z,98610.00
2018-12-09T16:36:20.647Z,98625.08
2018-12-09T16:38:49.390Z,98624.41
2018-12-09T16:41:17.712Z,98627.52
2018-12-09T16:43:46.543Z,98644.69
2018-12-09T16:46:14.737Z,98645.05
2018-12-09T16:48:43.368Z,98657.58
2018-12-09T16:51:11.707Z,98663.42
2018-12-09T16:53:39.879Z,98665.69
2018-12-09T16:56:08.153Z,98672.95
2018-12-09T16:58:36.337Z,98679.34
2018-12-09T17:01:04.550Z,98683.95
2018-12-09T17:03:32.930Z,98683.66
2018-12-09T17:06:01.092Z,98674.63
2018-12-09T17:08:29.285Z,98675.30
2018-12-09T17:10:57.575Z,98678.30
2018-12-09T17:13:25.750Z,98696.06
2018-12-09T17:15:53.936Z,98699.16
2018-12-09T17:18:22.128Z,98712.04
2018-12-09T17:20:50.385Z,98716.33
2018-12-09T17:23:18.575Z,98720.67
2018-12-09T17:25:46.850Z,98732.17
2018-12-09T17:28:15.074Z,98740.38
2018-12-09T17:30:43.279Z,98755.91
2018-12-09T17:33:11.490Z,98777.56
2018-12-09T17:35:39.647Z,98787.09
2018-12-09T17:38:07.869Z,98808.55
2018-12-09T17:40:36.102Z,98784.05
2018-12-09T17:43:04.346Z,98796.63
2018-12-09T17:45:32.745Z,98818.09
2018-12-09T17:48:02.189Z,98823.41
2018-12-09T17:50:30.613Z,98822.54
2018-12-09T17:52:58.900Z,98834.90
2018-12-09T17:55:27.095Z,98834.78
2018-12-09T17:57:55.338Z,98831.39
2018-12-09T18:00:23.501Z,98845.69
2018-12-09T18:02:51.697Z,98857.55
2018-12-09T18:05:19.871Z,98868.98
2018-12-09T18:07:48.124Z,98870.04
2018-12-09T18:10:16.332Z,98876.41
2018-12-09T18:12:48.104Z,98889.06
2018-12-09T18:15:19.005Z,98894.38
2018-12-09T18:17:47.383Z,98896.57
2018-12-09T18:20:15.554Z,98898.52
2018-12-09T18:22:43.846Z,98903.26
2018-12-09T18:25:12.030Z,98907.00
2018-12-09T18:27:40.184Z,98918.83
2018-12-09T18:30:08.899Z,98920.93
2018-12-09T18:32:37.140Z,98930.05
2018-12-09T18:35:05.813Z,98941.61
2018-12-09T18:37:34.135Z,98948.27
2018-12-09T18:40:02.412Z,98950.78
2018-12-09T18:42:30.586Z,98954.33
2018-12-09T18:44:58.833Z,98952.68
2018-12-09T18:47:27.057Z,98955.53
2018-12-09T18:49:55.264Z,98975.18
2018-12-09T18:52:23.579Z,98983.00
2018-12-09T18:54:51.731Z,98986.73
2018-12-09T18:57:19.952Z,98997.20
2018-12-09T18:59:48.210Z,99007.98
2018-12-09T19:02:16.368Z,99008.69
2018-12-09T19:04:44.530Z,99018.98
2018-12-09T19:07:12.954Z,99026.64
2018-12-09T19:09:41.209Z,99030.69
2018-12-09T19:12:09.456Z,99032.95
2018-12-09T19:14:37.648Z,99035.05
2018-12-09T19:17:05.882Z,99037.05
2018-12-09T19:19:34.182Z,99040.52
2018-12-09T19:22:03.009Z,99058.53
2018-12-09T19:24:31.186Z,99064.00
2018-12-09T19:26:59.503Z,99071.45
2018-12-09T19:29:27.821Z,99073.86
2018-12-09T19:31:56.030Z,99077.13
2018-12-09T19:34:24.220Z,99074.64
2018-12-09T19:36:52.429Z,99080.41
2018-12-09T19:39:20.654Z,99086.45
2018-12-09T19:41:48.822Z,99084.04
2018-12-09T19:44:17.975Z,99081.75
2018-12-09T19:46:46.178Z,99081.27
2018-12-09T19:49:14.405Z,99094.55
2018-12-09T19:51:42.732Z,99089.80
2018-12-09T19:54:10.971Z,99096.53
2018-12-09T19:56:39.141Z,99090.58
2018-12-09T19:59:07.423Z,99095.70
2018-12-09T20:01:35.613Z,99100.72
2018-12-09T20:04:03.877Z,99106.66
2018-12-09T20:06:32.158Z,99101.48
2018-12-09T20:09:00.321Z,99109.16
2018-12-09T20:11:28.561Z,99110.08
2018-12-09T20:13:56.762Z,99107.58
2018-12-09T20:16:24.991Z,99122.58
2018-12-09T20:18:53.540Z,99127.71
2018-12-09T20:21:21.798Z,99132.70
2018-12-09T20:23:50.055Z,99130.47
2018-12-09T20:26:18.241Z,99139.66
2018-12-09T20:28:46.525Z,99145.56
2018-12-09T20:31:14.721Z,99145.13
2018-12-09T20:33:42.894Z,99153.96
2018-12-09T20:36:11.094Z,99165.13
2018-12-09T20:38:39.301Z,99156.61
2018-12-09T20:41:07.575Z,99167.92
2018-12-09T20:43:35.767Z,99165.83
2018-12-09T20:46:04.124Z,99163.02
2018-12-09T20:48:32.973Z,99169.37
2018-12-09T20:51:01.114Z,99185.66
2018-12-09T20:53:29.351Z,99185.94
2018-12-09T20:55:57.653Z,99193.47
2018-12-09T20:58:25.906Z,99192.92
2018-12-09T21:00:54.197Z,99207.03
2018-12-09T21:03:22.441Z,99211.25
2018-12-09T21:05:50.609Z,99213.78
2018-12-09T21:08:18.773Z,99216.66
2018-12-09T21:10:47.033Z,99226.19
2018-12-09T21:13:15.227Z,99228.19
2018-12-09T21:15:43.388Z,99236.25
2018-12-09T21:18:11.624Z,99242.14
2018-12-09T21:20:39.820Z,99239.45
2018-12-09T21:23:08.188Z,99250.30
2018-12-09T21:25:36.458Z,99251.69
2018-12-09T21:28:04.701Z,99263.58
2018-12-09T21:30:33.201Z,99267.45
2018-12-09T21:33:01.475Z,99278.14
2018-12-09T21:35:29.640Z,99278.38
2018-12-09T21:37:58.008Z,99276.97
2018-12-09T21:40:26.178Z,99290.91
2018-12-09T21:42:54.464Z,99297.19
2018-12-09T21:45:23.269Z,99290.68
2018-12-09T21:47:51.440Z,99301.41
2018-12-09T21:50:19.699Z,99312.43
2018-12-09T21:52:47.897Z,99313.89
2018-12-09T21:55:16.071Z,99315.68
2018-12-09T21:57:44.270Z,99307.86
2018-12-09T22:00:12.609Z,99313.34
2018-12-09T22:02:40.782Z,99312.67
2018-12-09T22:05:09.093Z,99318.38
2018-12-09T22:07:37.337Z,99312.11
2018-12-09T22:10:06.254Z,99319.48
2018-12-09T22:12:34.501Z,99319.80
2018-12-09T22:15:02.999Z,99323.79
2018-12-09T22:17:31.283Z,99332.02
2018-12-09T22:19:59.551Z,99336.88
2018-12-09T22:22:27.793Z,99337.41
2018-12-09T22:24:56.006Z,99331.22
2018-12-09T22:27:24.289Z,99338.88
2018-12-09T22:29:54.409Z,99339.80
2018-12-09T22:32:26.132Z,99353.14
2018-12-09T22:34:55.023Z,99355.34
2018-12-09T22:37:25.566Z,99356.42
2018-12-09T22:39:54.535Z,99355.64
2018-12-09T22:42:25.408Z,99363.17
2018-12-09T22:44:55.124Z,99361.98
2018-12-09T22:47:25.222Z,99363.22
2018-12-09T22:49:56.398Z,99368.41
2018-12-09T22:52:24.847Z,99370.31
2018-12-09T22:54:55.479Z,99374.94
2018-12-09T22:57:25.365Z,99377.52
2018-12-09T22:59:54.700Z,99381.53
2018-12-09T23:02:29.599Z,99388.16
2018-12-09T23:04:57.878Z,99399.44
2018-12-09T23:07:31.420Z,99400.17
2018-12-09T23:09:59.741Z,99396.20
2018-12-09T23:12:28.056Z,99398.00
2018-12-09T23:14:56.312Z,99402.38
2018-12-09T23:17:25.303Z,99412.84
2018-12-09T23:19:55.291Z,99409.41
2018-12-09T23:22:25.133Z,99410.98
2018-12-09T23:24:55.844Z,99415.53
2018-12-09T23:27:25.456Z,99421.75
2018-12-09T23:29:55.456Z,99423.53
2018-12-09T23:32:25.216Z,99430.48
2018-12-09T23:34:54.486Z,99436.30
2018-12-09T23:37:25.223Z,99432.88
2018-12-09T23:39:55.537Z,99443.19
2018-12-09T23:42:25.361Z,99449.12
2018-12-09T23:44:55.313Z,99460.11
2018-12-09T23:47:25.006Z,99456.62
2018-12-09T23:49:55.521Z,99453.91
2018-12-09T23:52:25.148Z,99457.93
2018-12-09T23:54:54.818Z,99464.36
2018-12-09T23:57:23.952Z,99468.80
2018-12-09T23:59:52.099Z,99462.55
